| time (UTC) | temp F | wind direction | speed MPH | gust MPH | rain 1hr in | rain 24hr in | rain mn in | humidity % | barometer mb |
| 20260904160058 | 74 | 340 | 5.0 | 13.0 | 0.00 | 0.00 | 0.00 | 66 | 1010.6 |
| 20260904155531 | 74 | 298 | 3.0 | 13.0 | 0.00 | 0.00 | 0.00 | 69 | 1010.6 |
| 20260904155031 | 73 | 360 | 3.0 | 13.0 | 0.00 | 0.00 | 0.00 | 71 | 1010.6 |
| 20260904154551 | 73 | 319 | 7.0 | 14.0 | 0.00 | 0.00 | 0.00 | 68 | 1010.6 |
| 20260904154032 | 73 | 55 | 6.0 | 14.0 | 0.00 | 0.00 | 0.00 | 66 | 1010.6 |
| 20260904153534 | 73 | 339 | 2.0 | 13.0 | 0.00 | 0.00 | 0.00 | 69 | 1010.9 |
| 20260904153106 | 73 | 10 | 4.0 | 12.0 | 0.00 | 0.00 | 0.00 | 68 | 1010.7 |
| 20260904152530 | 73 | 259 | 3.0 | 12.0 | 0.00 | 0.00 | 0.00 | 69 | 1010.8 |
| 20260904152030 | 72 | 261 | 3.0 | 15.0 | 0.00 | 0.00 | 0.00 | 70 | 1010.7 |
| 20260904151554 | 72 | 5 | 4.0 | 15.0 | 0.00 | 0.00 | 0.00 | 70 | 1010.9 |
| 20260904151030 | 72 | 352 | 5.0 | 14.0 | 0.00 | 0.00 | 0.00 | 68 | 1010.7 |
| 20260904150530 | 72 | 340 | 3.0 | 15.0 | 0.00 | 0.00 | 0.00 | 69 | 1010.9 |
| 20260904150053 | 72 | 349 | 7.0 | 15.0 | 0.00 | 0.00 | 0.00 | 69 | 1010.8 |
| 20260904145531 | 72 | 360 | 4.0 | 12.0 | 0.00 | 0.00 | 0.00 | 71 | 1010.8 |
| 20260904145032 | 71 | 42 | 4.0 | 12.0 | 0.00 | 0.00 | 0.00 | 74 | 1010.7 |
| 20260904144550 | 71 | 248 | 4.0 | 12.0 | 0.00 | 0.00 | 0.00 | 73 | 1010.7 |
| 20260904144031 | 71 | 293 | 3.0 | 12.0 | 0.00 | 0.00 | 0.00 | 75 | 1010.7 |
| 20260904143530 | 71 | 32 | 4.0 | 12.0 | 0.00 | 0.00 | 0.00 | 74 | 1010.6 |
| 20260904143104 | 71 | 254 | 4.0 | 11.0 | 0.00 | 0.00 | 0.00 | 75 | 1010.8 |
| 20260904142529 | 71 | 5 | 4.0 | 11.0 | 0.00 | 0.00 | 0.00 | 76 | 1010.8 |
| 20260904142028 | 70 | 313 | 5.0 | 12.0 | 0.00 | 0.00 | 0.00 | 75 | 1010.8 |
| 20260904141543 | 70 | 340 | 3.0 | 12.0 | 0.00 | 0.00 | 0.00 | 76 | 1010.8 |
| 20260904141031 | 70 | 0 | 4.0 | 12.0 | 0.00 | 0.00 | 0.00 | 76 | 1010.8 |
| 20260904140533 | 70 | 234 | 4.0 | 12.0 | 0.00 | 0.00 | 0.00 | 78 | 1010.8 |
| 20260904140054 | 69 | 272 | 3.0 | 12.0 | 0.00 | 0.00 | 0.00 | 80 | 1011.0 |
| 20260904135532 | 69 | 332 | 4.0 | 12.0 | 0.00 | 0.00 | 0.00 | 81 | 1010.8 |
| 20260904135032 | 69 | 257 | 2.0 | 10.0 | 0.00 | 0.00 | 0.00 | 83 | 1010.7 |
| 20260904134552 | 68 | 244 | 4.0 | 10.0 | 0.00 | 0.00 | 0.00 | 83 | 1010.8 |
| 20260904134031 | 68 | 240 | 3.0 | 10.0 | 0.00 | 0.00 | 0.00 | 86 | 1010.8 |
| 20260904133531 | 67 | 252 | 2.0 | 9.0 | 0.00 | 0.00 | 0.00 | 87 | 1010.9 |
| 20260904133105 | 67 | 234 | 2.0 | 9.0 | 0.00 | 0.00 | 0.00 | 89 | 1010.9 |
| 20260904132531 | 67 | 344 | 4.0 | 9.0 | 0.00 | 0.00 | 0.00 | 88 | 1010.8 |
| 20260904132027 | 66 | 227 | 3.0 | 10.0 | 0.00 | 0.00 | 0.00 | 90 | 1010.8 |
| 20260904131552 | 66 | 254 | 3.0 | 10.0 | 0.00 | 0.00 | 0.00 | 92 | 1010.8 |
| 20260904131031 | 65 | 246 | 2.0 | 10.0 | 0.00 | 0.00 | 0.00 | 93 | 1010.8 |
| 20260904130533 | 65 | 259 | 3.0 | 10.0 | 0.00 | 0.00 | 0.00 | 94 | 1010.8 |
| 20260904130055 | 65 | 13 | 2.0 | 7.0 | 0.00 | 0.00 | 0.00 | 96 | 1010.8 |
| 20260904125531 | 64 | 280 | 2.0 | 7.0 | 0.00 | 0.00 | 0.00 | 97 | 1010.9 |
| 20260904125032 | 64 | 257 | 3.0 | 7.0 | 0.00 | 0.00 | 0.00 | 97 | 1010.9 |
| 20260904124554 | 63 | 281 | 3.0 | 6.0 | 0.00 | 0.00 | 0.00 | 97 | 1010.9 |
| 20260904124033 | 63 | 261 | 2.0 | 5.0 | 0.00 | 0.00 | 0.00 | 97 | 1010.8 |
| 20260904123531 | 62 | 233 | 2.0 | 5.0 | 0.00 | 0.00 | 0.00 | 98 | 1011.0 |
| 20260904123049 | 62 | 251 | 2.0 | 5.0 | 0.00 | 0.00 | 0.00 | 97 | 1010.8 |
| 20260904122528 | 62 | 259 | 2.0 | 7.0 | 0.00 | 0.00 | 0.00 | 98 | 1010.8 |
| 20260904122031 | 62 | 234 | 2.0 | 8.0 | 0.00 | 0.00 | 0.00 | 97 | 1010.9 |
| 20260904121549 | 61 | 283 | 3.0 | 8.0 | 0.00 | 0.00 | 0.00 | 97 | 1010.9 |
| 20260904121028 | 62 | 272 | 2.0 | 6.0 | 0.00 | 0.00 | 0.00 | 98 | 1010.9 |
| 20260904120529 | 61 | 255 | 2.0 | 7.0 | 0.00 | 0.00 | 0.00 | 98 | 1010.8 |
| 20260904120058 | 61 | 254 | 2.0 | 7.0 | 0.00 | 0.00 | 0.00 | 98 | 1010.8 |
| 20260904115531 | 61 | 263 | 2.0 | 7.0 | 0.00 | 0.00 | 0.00 | 98 | 1010.9 |
| 20260904115032 | 61 | 265 | 1.0 | 6.0 | 0.00 | 0.00 | 0.00 | 98 | 1010.8 |
| 20260904114548 | 61 | 234 | 3.0 | 6.0 | 0.00 | 0.00 | 0.00 | 98 | 1010.8 |
| 20260904114028 | 60 | 246 | 2.0 | 5.0 | 0.00 | 0.00 | 0.00 | 98 | 1010.8 |
| 20260904113531 | 60 | 252 | 1.0 | 5.0 | 0.00 | 0.00 | 0.00 | 98 | 1010.8 |
| 20260904113055 | 60 | 239 | 2.0 | 6.0 | 0.00 | 0.00 | 0.00 | 98 | 1010.7 |
| 20260904112530 | 60 | 273 | 3.0 | 7.0 | 0.00 | 0.00 | 0.00 | 98 | 1010.7 |
| 20260904112033 | 60 | 263 | 2.0 | 7.0 | 0.00 | 0.00 | 0.00 | 98 | 1010.6 |
| 20260904111552 | 59 | 0 | 1.0 | 6.0 | 0.00 | 0.00 | 0.00 | 98 | 1010.6 |
| 20260904111030 | 59 | 257 | 1.0 | 4.0 | 0.00 | 0.00 | 0.00 | 98 | 1010.6 |
| 20260904110531 | 59 | 0 | 1.0 | 4.0 | 0.00 | 0.00 | 0.00 | 98 | 1010.4 |
| 20260904110051 | 59 | 262 | 1.0 | 6.0 | 0.00 | 0.00 | 0.00 | 98 | 1010.5 |
| 20260904105534 | 59 | 255 | 2.0 | 6.0 | 0.00 | 0.01 | 0.00 | 98 | 1010.5 |
| 20260904105030 | 59 | 252 | 1.0 | 4.0 | 0.00 | 0.01 | 0.00 | 98 | 1010.5 |
| 20260904104545 | 58 | 242 | 1.0 | 6.0 | 0.00 | 0.01 | 0.00 | 97 | 1010.4 |
| 20260904104031 | 58 | 261 | 2.0 | 6.0 | 0.00 | 0.01 | 0.00 | 97 | 1010.6 |
| 20260904103530 | 58 | 267 | 2.0 | 6.0 | 0.00 | 0.01 | 0.00 | 97 | 1010.3 |
| 20260904103053 | 58 | 252 | 1.0 | 3.0 | 0.00 | 0.01 | 0.00 | 97 | 1010.4 |
| 20260904102528 | 58 | 246 | 1.0 | 4.0 | 0.00 | 0.01 | 0.00 | 97 | 1010.4 |
| 20260904102027 | 59 | 246 | 1.0 | 4.0 | 0.00 | 0.01 | 0.00 | 97 | 1010.3 |
| 20260904101550 | 59 | 252 | 0.0 | 4.0 | 0.00 | 0.01 | 0.00 | 97 | 1010.3 |
| 20260904101031 | 59 | 0 | 0.0 | 3.0 | 0.00 | 0.01 | 0.00 | 97 | 1010.4 |
| 20260904100531 | 59 | 254 | 0.0 | 4.0 | 0.00 | 0.01 | 0.00 | 97 | 1010.2 |
| 20260904100049 | 59 | 252 | 1.0 | 4.0 | 0.00 | 0.01 | 0.00 | 97 | 1010.2 |
| 20260904095532 | 59 | 234 | 1.0 | 4.0 | 0.00 | 0.01 | 0.00 | 97 | 1010.1 |
| 20260904095031 | 59 | 241 | 2.0 | 6.0 | 0.00 | 0.01 | 0.00 | 97 | 1010.2 |
| 20260904094556 | 59 | 277 | 2.0 | 6.0 | 0.00 | 0.01 | 0.00 | 97 | 1010.2 |
| 20260904094030 | 59 | 249 | 2.0 | 3.0 | 0.00 | 0.01 | 0.00 | 97 | 1010.2 |
| 20260904093532 | 59 | 247 | 1.0 | 6.0 | 0.00 | 0.01 | 0.00 | 97 | 1010.2 |
| 20260904093052 | 59 | 255 | 2.0 | 6.0 | 0.00 | 0.01 | 0.00 | 97 | 1010.2 |
| 20260904092528 | 60 | 260 | 1.0 | 4.0 | 0.00 | 0.01 | 0.00 | 97 | 1010.2 |
| 20260904092030 | 60 | 258 | 2.0 | 4.0 | 0.00 | 0.01 | 0.00 | 97 | 1010.1 |
| 20260904091547 | 60 | 269 | 1.0 | 5.0 | 0.00 | 0.01 | 0.00 | 97 | 1010.2 |
| 20260904091033 | 60 | 274 | 1.0 | 6.0 | 0.00 | 0.01 | 0.00 | 97 | 1010.3 |
| 20260904090531 | 60 | 252 | 1.0 | 6.0 | 0.00 | 0.01 | 0.00 | 97 | 1010.2 |
| 20260904090042 | 60 | 285 | 1.0 | 4.0 | 0.00 | 0.01 | 0.00 | 97 | 1010.2 |
| 20260904085533 | 60 | 265 | 1.0 | 3.0 | 0.00 | 0.01 | 0.00 | 97 | 1010.2 |
| 20260904085028 | 60 | 0 | 1.0 | 3.0 | 0.00 | 0.01 | 0.00 | 97 | 1010.2 |
| 20260904084558 | 60 | 261 | 1.0 | 3.0 | 0.00 | 0.01 | 0.00 | 98 | 1010.2 |
| 20260904084030 | 60 | 0 | 1.0 | 3.0 | 0.00 | 0.01 | 0.00 | 98 | 1010.2 |
| 20260904083530 | 60 | 340 | 0.0 | 3.0 | 0.00 | 0.01 | 0.00 | 97 | 1010.2 |
| 20260904083051 | 60 | 0 | 0.0 | 2.0 | 0.00 | 0.01 | 0.00 | 98 | 1010.1 |
| 20260904082532 | 60 | 0 | 0.0 | 2.0 | 0.00 | 0.01 | 0.00 | 98 | 1010.0 |
| 20260904082030 | 60 | 0 | 0.0 | 2.0 | 0.00 | 0.01 | 0.00 | 98 | 1010.1 |
| 20260904081544 | 60 | 336 | 0.0 | 1.0 | 0.00 | 0.01 | 0.00 | 98 | 1010.2 |
| 20260904081035 | 60 | 0 | 0.0 | 1.0 | 0.00 | 0.01 | 0.00 | 98 | 1010.2 |
| 20260904080531 | 60 | 0 | 0.0 | 1.0 | 0.00 | 0.01 | 0.00 | 98 | 1010.0 |
| 20260904080114 | 59 | 0 | 0.0 | 1.0 | 0.00 | 0.01 | 0.00 | 97 | 1010.0 |
| 20260904075531 | 59 | 0 | 0.0 | 1.0 | 0.00 | 0.01 | 0.00 | 97 | 1010.1 |
| 20260904075033 | 59 | 0 | 0.0 | 1.0 | 0.00 | 0.01 | 0.00 | 96 | 1010.2 |
| 20260904074550 | 59 | 0 | 0.0 | 0.0 | 0.00 | 0.01 | 0.00 | 96 | 1010.2 |
| 20260904074030 | 60 | 0 | 0.0 | 0.0 | 0.00 | 0.01 | 0.00 | 97 | 1010.2 |
| 20260904073533 | 60 | 0 | 0.0 | 1.0 | 0.00 | 0.01 | 0.00 | 97 | 1010.2 |
| 20260904073048 | 60 | 0 | 0.0 | 1.0 | 0.00 | 0.01 | 0.00 | 97 | 1010.2 |
| 20260904072531 | 60 | 336 | 0.0 | 2.0 | 0.00 | 0.01 | 0.00 | 98 | 1010.4 |
| 20260904072030 | 60 | 0 | 0.0 | 2.0 | 0.00 | 0.01 | 0.00 | 98 | 1010.5 |
| 20260904071547 | 60 | 0 | 0.0 | 2.0 | 0.00 | 0.01 | 0.00 | 97 | 1010.4 |
| 20260904071030 | 60 | 336 | 0.0 | 2.0 | 0.00 | 0.01 | 0.00 | 97 | 1010.5 |
| 20260904070531 | 59 | 0 | 0.0 | 2.0 | 0.00 | 0.01 | 0.00 | 98 | 1010.6 |
| 20260904070050 | 59 | 336 | 0.0 | 1.0 | 0.00 | 0.01 | 0.00 | 98 | 1010.7 |
| 20260904065529 | 58 | 0 | 0.0 | 1.0 | 0.00 | 0.06 | 0.00 | 97 | 1010.6 |
| 20260904065029 | 58 | 0 | 0.0 | 1.0 | 0.00 | 0.06 | 0.00 | 97 | 1010.7 |
| 20260904064543 | 58 | 0 | 0.0 | 0.0 | 0.00 | 0.06 | 0.00 | 96 | 1010.6 |
| 20260904064030 | 58 | 0 | 0.0 | 1.0 | 0.00 | 0.06 | 0.00 | 97 | 1010.6 |
| 20260904063527 | 59 | 0 | 0.0 | 1.0 | 0.00 | 0.06 | 0.00 | 97 | 1010.7 |
| 20260904063109 | 59 | 0 | 0.0 | 1.0 | 0.00 | 0.06 | 0.00 | 96 | 1010.7 |
| 20260904062529 | 59 | 0 | 0.0 | 0.0 | 0.00 | 0.06 | 0.00 | 96 | 1010.7 |
| 20260904062030 | 60 | 0 | 0.0 | 1.0 | 0.00 | 0.06 | 0.00 | 97 | 1010.7 |
| 20260904061543 | 60 | 0 | 0.0 | 1.0 | 0.00 | 0.06 | 0.00 | 97 | 1010.7 |
| 20260904061030 | 60 | 0 | 0.0 | 1.0 | 0.00 | 0.06 | 0.00 | 97 | 1010.7 |
| 20260904060530 | 60 | 258 | 0.0 | 1.0 | 0.00 | 0.06 | 0.00 | 97 | 1010.8 |
| 20260904060055 | 60 | 0 | 0.0 | 1.0 | 0.00 | 0.06 | 0.00 | 97 | 1010.8 |
| 20260904055534 | 60 | 0 | 0.0 | 1.0 | 0.00 | 0.06 | 0.00 | 97 | 1010.9 |
| 20260904055029 | 60 | 0 | 0.0 | 1.0 | 0.00 | 0.06 | 0.00 | 97 | 1011.0 |
| 20260904054554 | 60 | 0 | 0.0 | 1.0 | 0.00 | 0.06 | 0.00 | 96 | 1011.2 |
| 20260904054032 | 60 | 0 | 0.0 | 1.0 | 0.00 | 0.06 | 0.00 | 97 | 1011.2 |
| 20260904053527 | 60 | 0 | 0.0 | 1.0 | 0.00 | 0.06 | 0.00 | 97 | 1011.3 |
| 20260904053059 | 60 | 0 | 0.0 | 1.0 | 0.00 | 0.06 | 0.00 | 97 | 1011.4 |
| 20260904052529 | 60 | 0 | 0.0 | 1.0 | 0.00 | 0.06 | 0.00 | 96 | 1011.5 |
| 20260904052029 | 61 | 0 | 0.0 | 1.0 | 0.00 | 0.06 | 0.00 | 96 | 1011.5 |
| 20260904051545 | 61 | 0 | 0.0 | 1.0 | 0.00 | 0.06 | 0.00 | 97 | 1011.3 |
| 20260904051033 | 61 | 258 | 0.0 | 1.0 | 0.00 | 0.06 | 0.00 | 97 | 1011.5 |
| 20260904050529 | 62 | 0 | 0.0 | 1.0 | 0.00 | 0.06 | 0.00 | 97 | 1011.5 |
| 20260904050045 | 62 | 0 | 0.0 | 1.0 | 0.00 | 0.06 | 0.00 | 97 | 1011.6 |
| 20260904045528 | 62 | 0 | 0.0 | 1.0 | 0.00 | 0.06 | 0.00 | 97 | 1011.5 |
| 20260904045030 | 61 | 0 | 0.0 | 1.0 | 0.00 | 0.06 | 0.00 | 97 | 1011.5 |
| 20260904044559 | 62 | 0 | 0.0 | 1.0 | 0.00 | 0.06 | 0.00 | 97 | 1011.6 |
| 20260904044034 | 62 | 0 | 0.0 | 1.0 | 0.00 | 0.06 | 0.00 | 97 | 1011.5 |
| 20260904043529 | 62 | 0 | 0.0 | 1.0 | 0.00 | 0.06 | 0.00 | 97 | 1011.4 |
| 20260904043058 | 62 | 0 | 0.0 | 1.0 | 0.00 | 0.06 | 0.00 | 97 | 1011.7 |
| 20260904042529 | 62 | 0 | 0.0 | 1.0 | 0.00 | 0.06 | 0.00 | 97 | 1011.7 |
| 20260904042032 | 62 | 0 | 0.0 | 1.0 | 0.00 | 0.06 | 0.00 | 97 | 1011.7 |
| 20260904041548 | 62 | 0 | 0.0 | 3.0 | 0.00 | 0.06 | 0.00 | 97 | 1011.7 |
| 20260904041029 | 62 | 258 | 0.0 | 3.0 | 0.00 | 0.06 | 0.00 | 97 | 1011.6 |
| 20260904040529 | 62 | 0 | 1.0 | 3.0 | 0.00 | 0.06 | 0.00 | 97 | 1011.6 |
| 20260904040046 | 61 | 0 | 0.0 | 2.0 | 0.00 | 0.06 | 0.00 | 97 | 1011.7 |
| 20260904035531 | 61 | 281 | 0.0 | 2.0 | 0.00 | 0.06 | 0.06 | 97 | 1011.8 |
| 20260904035031 | 61 | 0 | 0.0 | 2.0 | 0.00 | 0.06 | 0.06 | 97 | 1011.8 |
| 20260904034604 | 61 | 0 | 0.0 | 1.0 | 0.00 | 0.06 | 0.06 | 97 | 1011.8 |
| 20260904034032 | 61 | 0 | 0.0 | 2.0 | 0.00 | 0.06 | 0.06 | 97 | 1011.9 |
| 20260904033534 | 61 | 0 | 0.0 | 2.0 | 0.00 | 0.06 | 0.06 | 97 | 1011.9 |
| 20260904033048 | 61 | 0 | 0.0 | 1.0 | 0.00 | 0.06 | 0.06 | 97 | 1012.0 |
| 20260904032529 | 61 | 0 | 0.0 | 1.0 | 0.00 | 0.06 | 0.06 | 97 | 1011.8 |
| 20260904032029 | 61 | 0 | 0.0 | 1.0 | 0.00 | 0.06 | 0.06 | 97 | 1012.0 |
| 20260904031548 | 61 | 0 | 0.0 | 0.0 | 0.00 | 0.06 | 0.06 | 96 | 1012.1 |
| 20260904031030 | 61 | 0 | 0.0 | 0.0 | 0.00 | 0.06 | 0.06 | 96 | 1012.1 |
| 20260904030531 | 61 | 0 | 0.0 | 0.0 | 0.00 | 0.06 | 0.06 | 97 | 1012.0 |
| 20260904030056 | 61 | 0 | 0.0 | 0.0 | 0.00 | 0.06 | 0.06 | 96 | 1012.1 |
| 20260904025527 | 61 | 0 | 0.0 | 0.0 | 0.00 | 0.06 | 0.06 | 96 | 1012.1 |
| 20260904025030 | 61 | 0 | 0.0 | 0.0 | 0.00 | 0.06 | 0.06 | 95 | 1012.2 |
| 20260904024544 | 61 | 0 | 0.0 | 0.0 | 0.00 | 0.06 | 0.06 | 96 | 1012.2 |
| 20260904024031 | 61 | 0 | 0.0 | 2.0 | 0.00 | 0.06 | 0.06 | 96 | 1012.2 |
| 20260904023531 | 62 | 0 | 0.0 | 2.0 | 0.00 | 0.06 | 0.06 | 96 | 1012.2 |
| 20260904023043 | 62 | 5 | 0.0 | 1.0 | 0.00 | 0.06 | 0.06 | 96 | 1012.1 |
| 20260904022529 | 62 | 0 | 0.0 | 1.0 | 0.00 | 0.06 | 0.06 | 96 | 1012.1 |
| 20260904022032 | 62 | 0 | 0.0 | 1.0 | 0.00 | 0.06 | 0.06 | 96 | 1012.0 |
| 20260904021556 | 62 | 0 | 0.0 | 2.0 | 0.00 | 0.06 | 0.06 | 95 | 1012.1 |
| 20260904021028 | 62 | 0 | 0.0 | 2.0 | 0.00 | 0.06 | 0.06 | 95 | 1012.3 |
| 20260904020528 | 62 | 5 | 0.0 | 2.0 | 0.00 | 0.06 | 0.06 | 96 | 1012.2 |
| 20260904020045 | 62 | 0 | 0.0 | 2.0 | 0.00 | 0.06 | 0.06 | 95 | 1012.2 |
| 20260904015532 | 63 | 5 | 0.0 | 2.0 | 0.00 | 0.06 | 0.06 | 96 | 1012.2 |
| 20260904015030 | 63 | 5 | 1.0 | 2.0 | 0.00 | 0.06 | 0.06 | 96 | 1012.3 |
| 20260904014546 | 63 | 5 | 0.0 | 1.0 | 0.00 | 0.06 | 0.06 | 95 | 1012.4 |
| 20260904014031 | 63 | 0 | 0.0 | 2.0 | 0.00 | 0.06 | 0.06 | 95 | 1012.5 |
| 20260904013527 | 63 | 0 | 0.0 | 2.0 | 0.00 | 0.06 | 0.06 | 95 | 1012.5 |
| 20260904013045 | 63 | 5 | 1.0 | 2.0 | 0.00 | 0.06 | 0.06 | 95 | 1012.4 |
| 20260904012527 | 63 | 5 | 1.0 | 2.0 | 0.00 | 0.06 | 0.06 | 95 | 1012.4 |
| 20260904012031 | 63 | 5 | 1.0 | 2.0 | 0.00 | 0.06 | 0.06 | 95 | 1012.3 |
| 20260904011631 | 64 | 5 | 1.0 | 3.0 | 0.00 | 0.06 | 0.06 | 95 | 1012.3 |
| 20260904011028 | 64 | 5 | 1.0 | 3.0 | 0.00 | 0.06 | 0.06 | 95 | 1012.4 |
| 20260904010527 | 64 | 5 | 1.0 | 3.0 | 0.00 | 0.06 | 0.06 | 95 | 1012.4 |
| 20260904010049 | 64 | 5 | 0.0 | 2.0 | 0.00 | 0.06 | 0.06 | 95 | 1012.4 |
| 20260904005528 | 64 | 0 | 0.0 | 2.0 | 0.00 | 0.06 | 0.06 | 95 | 1012.2 |
| 20260904005028 | 64 | 0 | 0.0 | 1.0 | 0.00 | 0.06 | 0.06 | 95 | 1012.6 |
| 20260904004554 | 64 | 0 | 0.0 | 1.0 | 0.00 | 0.06 | 0.06 | 95 | 1012.3 |
| 20260904004033 | 65 | 0 | 0.0 | 1.0 | 0.00 | 0.06 | 0.06 | 95 | 1012.1 |
| 20260904003534 | 65 | 0 | 0.0 | 1.0 | 0.00 | 0.06 | 0.06 | 94 | 1012.1 |
| 20260904003053 | 65 | 0 | 0.0 | 1.0 | 0.00 | 0.06 | 0.06 | 94 | 1012.0 |
| 20260904002529 | 65 | 0 | 0.0 | 1.0 | 0.00 | 0.06 | 0.06 | 94 | 1012.0 |
| 20260904002031 | 65 | 0 | 0.0 | 2.0 | 0.00 | 0.06 | 0.06 | 94 | 1012.0 |
| 20260904001552 | 65 | 0 | 0.0 | 2.0 | 0.00 | 0.06 | 0.06 | 94 | 1012.0 |
| 20260904001032 | 65 | 0 | 1.0 | 2.0 | 0.00 | 0.06 | 0.06 | 94 | 1011.9 |
| 20260904000529 | 65 | 59 | 0.0 | 2.0 | 0.00 | 0.06 | 0.06 | 93 | 1011.9 |
| 20260904000047 | 66 | 0 | 0.0 | 2.0 | 0.00 | 0.06 | 0.06 | 93 | 1011.6 |
| 20260903235531 | 66 | 57 | 0.0 | 2.0 | 0.00 | 0.06 | 0.06 | 93 | 1011.6 |
| 20260903235031 | 66 | 57 | 1.0 | 2.0 | 0.00 | 0.06 | 0.06 | 92 | 1011.6 |
| 20260903234545 | 66 | 92 | 0.0 | 2.0 | 0.00 | 0.06 | 0.06 | 93 | 1011.5 |
| 20260903234030 | 67 | 0 | 0.0 | 2.0 | 0.00 | 0.06 | 0.06 | 92 | 1011.4 |
| 20260903233532 | 67 | 0 | 0.0 | 3.0 | 0.00 | 0.06 | 0.06 | 92 | 1011.3 |
| 20260903233052 | 67 | 0 | 1.0 | 3.0 | 0.00 | 0.06 | 0.06 | 91 | 1011.6 |
| 20260903232531 | 67 | 13 | 0.0 | 3.0 | 0.00 | 0.06 | 0.06 | 91 | 1011.4 |
| 20260903232031 | 68 | 173 | 1.0 | 2.0 | 0.00 | 0.06 | 0.06 | 90 | 1011.2 |
| 20260903231547 | 68 | 0 | 0.0 | 1.0 | 0.00 | 0.06 | 0.06 | 89 | 1011.5 |
| 20260903231031 | 69 | 0 | 0.0 | 1.0 | 0.00 | 0.06 | 0.06 | 88 | 1011.5 |
| 20260903230530 | 69 | 0 | 0.0 | 2.0 | 0.00 | 0.06 | 0.06 | 87 | 1011.6 |
| 20260903230053 | 70 | 0 | 0.0 | 2.0 | 0.00 | 0.06 | 0.06 | 87 | 1011.6 |
| 20260903225533 | 70 | 0 | 0.0 | 2.0 | 0.00 | 0.06 | 0.06 | 86 | 1011.4 |
| 20260903225031 | 71 | 0 | 0.0 | 2.0 | 0.00 | 0.06 | 0.06 | 85 | 1011.4 |
| 20260903224550 | 71 | 0 | 0.0 | 2.0 | 0.00 | 0.06 | 0.06 | 85 | 1011.6 |
| 20260903224031 | 72 | 0 | 0.0 | 2.0 | 0.00 | 0.06 | 0.06 | 84 | 1011.7 |
| 20260903223531 | 72 | 0 | 0.0 | 3.0 | 0.00 | 0.06 | 0.06 | 84 | 1011.4 |
| 20260903223047 | 72 | 0 | 0.0 | 3.0 | 0.00 | 0.06 | 0.06 | 84 | 1011.4 |
| 20260903222531 | 73 | 0 | 1.0 | 3.0 | 0.00 | 0.06 | 0.06 | 84 | 1011.5 |
| 20260903222030 | 73 | 0 | 0.0 | 2.0 | 0.00 | 0.06 | 0.06 | 84 | 1011.6 |
| 20260903221545 | 73 | 0 | 0.0 | 2.0 | 0.00 | 0.06 | 0.06 | 83 | 1011.8 |
| 20260903221032 | 73 | 0 | 0.0 | 2.0 | 0.00 | 0.06 | 0.06 | 84 | 1012.0 |
| 20260903220530 | 73 | 0 | 0.0 | 3.0 | 0.00 | 0.06 | 0.06 | 84 | 1011.9 |
| 20260903220053 | 73 | 0 | 0.0 | 3.0 | 0.00 | 0.06 | 0.06 | 84 | 1011.8 |
| 20260903215530 | 73 | 0 | 1.0 | 3.0 | 0.00 | 0.06 | 0.06 | 84 | 1012.0 |
| 20260903215029 | 73 | 177 | 0.0 | 3.0 | 0.00 | 0.06 | 0.06 | 84 | 1012.0 |
| 20260903214600 | 73 | 143 | 0.0 | 3.0 | 0.00 | 0.06 | 0.06 | 84 | 1011.9 |
| 20260903214027 | 73 | 61 | 0.0 | 4.0 | 0.00 | 0.06 | 0.06 | 84 | 1011.8 |
| 20260903213529 | 73 | 0 | 0.0 | 4.0 | 0.00 | 0.06 | 0.06 | 84 | 1012.0 |
| 20260903213044 | 72 | 0 | 0.0 | 4.0 | 0.00 | 0.06 | 0.06 | 85 | 1011.9 |
| 20260903212528 | 72 | 147 | 0.0 | 2.0 | 0.00 | 0.06 | 0.06 | 84 | 1011.9 |
| 20260903212028 | 72 | 0 | 1.0 | 2.0 | 0.00 | 0.06 | 0.06 | 85 | 1012.0 |
| 20260903211548 | 72 | 106 | 0.0 | 3.0 | 0.00 | 0.06 | 0.06 | 85 | 1011.9 |
| 20260903211030 | 72 | 159 | 0.0 | 3.0 | 0.00 | 0.06 | 0.06 | 86 | 1011.9 |
| 20260903210530 | 71 | 71 | 0.0 | 2.0 | 0.00 | 0.06 | 0.06 | 87 | 1011.9 |
| 20260903210116 | 71 | 0 | 0.0 | 2.0 | 0.00 | 0.06 | 0.06 | 87 | 1011.9 |
| 20260903205531 | 71 | 0 | 0.0 | 3.0 | 0.00 | 0.06 | 0.06 | 86 | 1011.8 |
| 20260903205028 | 71 | 0 | 0.0 | 5.0 | 0.00 | 0.06 | 0.06 | 87 | 1011.8 |
| 20260903204558 | 71 | 0 | 0.0 | 5.0 | 0.00 | 0.06 | 0.06 | 87 | 1012.0 |
| 20260903204027 | 71 | 181 | 1.0 | 4.0 | 0.00 | 0.06 | 0.06 | 87 | 1011.9 |
| 20260903203532 | 71 | 175 | 1.0 | 6.0 | 0.00 | 0.06 | 0.06 | 86 | 1012.0 |
| 20260903203044 | 71 | 166 | 1.0 | 8.0 | 0.00 | 0.06 | 0.06 | 86 | 1012.1 |
| 20260903202529 | 71 | 188 | 3.0 | 8.0 | 0.00 | 0.06 | 0.06 | 86 | 1012.0 |
| 20260903202030 | 71 | 158 | 0.0 | 3.0 | 0.00 | 0.06 | 0.06 | 86 | 1012.1 |
| 20260903201544 | 71 | 0 | 1.0 | 5.0 | 0.00 | 0.06 | 0.06 | 86 | 1012.3 |
| 20260903201027 | 71 | 0 | 2.0 | 6.0 | 0.00 | 0.06 | 0.06 | 86 | 1012.3 |
| 20260903200527 | 71 | 202 | 1.0 | 6.0 | 0.00 | 0.06 | 0.06 | 88 | 1012.2 |
| 20260903200105 | 70 | 175 | 1.0 | 6.0 | 0.00 | 0.06 | 0.06 | 87 | 1012.3 |
| 20260903195529 | 71 | 167 | 3.0 | 6.0 | 0.00 | 0.06 | 0.06 | 86 | 1012.5 |
| 20260903195029 | 71 | 170 | 1.0 | 5.0 | 0.00 | 0.06 | 0.06 | 86 | 1012.5 |
| 20260903194548 | 70 | 0 | 2.0 | 6.0 | 0.00 | 0.06 | 0.06 | 86 | 1012.4 |
| 20260903194029 | 70 | 173 | 2.0 | 6.0 | 0.00 | 0.06 | 0.06 | 87 | 1012.5 |
| 20260903193529 | 70 | 156 | 2.0 | 6.0 | 0.00 | 0.06 | 0.06 | 87 | 1012.4 |
| 20260903193048 | 70 | 0 | 0.0 | 4.0 | 0.00 | 0.06 | 0.06 | 88 | 1012.5 |
| 20260903192530 | 70 | 176 | 1.0 | 4.0 | 0.00 | 0.06 | 0.06 | 87 | 1012.7 |
| 20260903192030 | 70 | 66 | 0.0 | 4.0 | 0.00 | 0.06 | 0.06 | 89 | 1012.7 |
| 20260903191601 | 69 | 156 | 0.0 | 4.0 | 0.00 | 0.06 | 0.06 | 90 | 1012.7 |
| 20260903191033 | 68 | 0 | 1.0 | 4.0 | 0.00 | 0.06 | 0.06 | 91 | 1012.7 |
| 20260903190531 | 67 | 173 | 0.0 | 3.0 | 0.00 | 0.06 | 0.06 | 91 | 1012.6 |
| 20260903190053 | 67 | 167 | 1.0 | 3.0 | 0.00 | 0.06 | 0.06 | 92 | 1012.6 |
| 20260903185529 | 66 | 15 | 0.0 | 4.0 | 0.00 | 0.06 | 0.06 | 92 | 1012.6 |
| 20260903185029 | 66 | 82 | 0.0 | 4.0 | 0.00 | 0.06 | 0.06 | 93 | 1012.6 |
| 20260903184547 | 65 | 168 | 1.0 | 4.0 | 0.00 | 0.06 | 0.06 | 92 | 1012.8 |
| 20260903184032 | 65 | 30 | 1.0 | 5.0 | 0.00 | 0.06 | 0.06 | 94 | 1012.9 |
| 20260903183529 | 65 | 153 | 1.0 | 5.0 | 0.00 | 0.06 | 0.06 | 93 | 1012.9 |
| 20260903183048 | 65 | 150 | 0.0 | 4.0 | 0.00 | 0.06 | 0.06 | 95 | 1013.0 |
| 20260903182529 | 64 | 171 | 0.0 | 4.0 | 0.00 | 0.06 | 0.06 | 94 | 1013.1 |
| 20260903182030 | 64 | 171 | 0.0 | 2.0 | 0.00 | 0.06 | 0.06 | 94 | 1013.2 |
| 20260903181543 | 64 | 0 | 0.0 | 2.0 | 0.00 | 0.06 | 0.06 | 95 | 1013.2 |
| 20260903181029 | 64 | 0 | 0.0 | 2.0 | 0.00 | 0.06 | 0.06 | 95 | 1013.2 |
| 20260903180530 | 64 | 0 | 0.0 | 3.0 | 0.00 | 0.06 | 0.06 | 95 | 1013.3 |
| 20260903180052 | 64 | 171 | 0.0 | 3.0 | 0.00 | 0.06 | 0.06 | 94 | 1013.4 |
| 20260903175532 | 64 | 165 | 0.0 | 2.0 | 0.00 | 0.06 | 0.06 | 95 | 1013.4 |
| 20260903175027 | 64 | 0 | 0.0 | 2.0 | 0.00 | 0.06 | 0.06 | 95 | 1013.3 |
| 20260903174544 | 63 | 154 | 0.0 | 2.0 | 0.00 | 0.06 | 0.06 | 95 | 1013.4 |
| 20260903174029 | 63 | 0 | 0.0 | 3.0 | 0.00 | 0.06 | 0.06 | 95 | 1013.5 |
| 20260903173533 | 63 | 182 | 0.0 | 4.0 | 0.00 | 0.06 | 0.06 | 95 | 1013.5 |
| 20260903173045 | 63 | 170 | 0.0 | 4.0 | 0.00 | 0.06 | 0.06 | 96 | 1013.4 |
| 20260903172530 | 63 | 170 | 1.0 | 4.0 | 0.00 | 0.06 | 0.06 | 95 | 1013.5 |
| 20260903172030 | 62 | 169 | 0.0 | 2.0 | 0.00 | 0.06 | 0.06 | 95 | 1013.6 |
| 20260903171557 | 62 | 0 | 0.0 | 2.0 | 0.00 | 0.06 | 0.06 | 95 | 1013.7 |
| 20260903171030 | 62 | 169 | 0.0 | 2.0 | 0.00 | 0.06 | 0.06 | 94 | 1013.7 |
| 20260903170529 | 62 | 169 | 0.0 | 5.0 | 0.00 | 0.06 | 0.06 | 95 | 1013.7 |
| 20260903170054 | 62 | 0 | 1.0 | 5.0 | 0.00 | 0.06 | 0.06 | 94 | 1013.7 |
| 20260903165530 | 63 | 162 | 0.0 | 4.0 | 0.00 | 0.06 | 0.06 | 95 | 1013.6 |
| 20260903165029 | 63 | 162 | 0.0 | 4.0 | 0.00 | 0.06 | 0.06 | 96 | 1013.6 |
| 20260903164548 | 62 | 215 | 2.0 | 4.0 | 0.00 | 0.06 | 0.06 | 95 | 1013.7 |
| 20260903164026 | 62 | 199 | 0.0 | 2.0 | 0.00 | 0.06 | 0.06 | 96 | 1013.8 |
| 20260903163526 | 62 | 199 | 0.0 | 2.0 | 0.00 | 0.06 | 0.06 | 96 | 1013.9 |
| 20260903163045 | 62 | 199 | 0.0 | 2.0 | 0.00 | 0.06 | 0.06 | 96 | 1013.9 |
| 20260903162528 | 62 | 311 | 0.0 | 3.0 | 0.00 | 0.06 | 0.06 | 96 | 1013.8 |
| 20260903162028 | 62 | 0 | 0.0 | 3.0 | 0.00 | 0.06 | 0.06 | 96 | 1013.9 |
| 20260903161544 | 61 | 27 | 1.0 | 3.0 | 0.00 | 0.06 | 0.06 | 97 | 1013.9 |
| 20260903161031 | 62 | 234 | 1.0 | 3.0 | 0.00 | 0.06 | 0.06 | 97 | 1013.8 |
| 20260903160530 | 61 | 198 | 0.0 | 2.0 | 0.00 | 0.06 | 0.06 | 97 | 1013.8 |